Time;durP1;ratioP1;P1;durP2;ratioP2;P2;SDS_P1;SDS_P2;PMS_P1;PMS_P2;Temp;Humidity;BMP_temperature;BMP_pressure;BME280_temperature;BME280_humidity;BME280_pressure;Samples;Min_cycle;Max_cycle;Signal;HPM_P1;HPM_P2
2021/11/11 00:02:08;;;;;;;48.70;29.23;;;;;;;1.52;100.00;101982.34;4986036;28;20173;-85
2021/11/11 00:04:36;;;;;;;50.13;28.77;;;;;;;1.50;100.00;101983.38;4955678;28;21020;-85
2021/11/11 00:07:08;;;;;;;50.15;31.23;;;;;;;1.53;100.00;101988.50;4983634;28;20050;-85
2021/11/11 00:09:34;;;;;;;53.25;30.05;;;;;;;1.49;100.00;101987.78;4956764;28;20034;-85
2021/11/11 00:12:02;;;;;;;49.42;30.25;;;;;;;1.46;100.00;101985.28;4968066;28;20050;-85
2021/11/11 00:14:27;;;;;;;48.28;27.80;;;;;;;1.42;100.00;101975.81;4971895;28;20049;-85
2021/11/11 00:16:56;;;;;;;48.97;30.00;;;;;;;1.44;100.00;101973.94;4963169;28;20038;-85
2021/11/11 00:19:21;;;;;;;50.13;30.73;;;;;;;1.46;100.00;101976.50;4966340;28;20061;-85
2021/11/11 00:21:47;;;;;;;50.47;31.33;;;;;;;1.41;100.00;101971.47;4971994;28;20039;-85
2021/11/11 00:24:12;;;;;;;48.00;29.15;;;;;;;1.44;100.00;101973.94;5003985;28;20042;-85
2021/11/11 00:26:40;;;;;;;51.25;29.20;;;;;;;1.39;100.00;101973.31;4988831;28;20034;-85
2021/11/11 00:29:11;;;;;;;49.55;28.85;;;;;;;1.35;100.00;101958.50;4989782;28;20046;-85
2021/11/11 00:31:37;;;;;;;43.78;27.60;;;;;;;1.36;100.00;101954.97;4966689;28;20114;-85
2021/11/11 00:34:09;;;;;;;45.47;28.45;;;;;;;1.34;100.00;101951.53;5004662;28;20045;-85
2021/11/11 00:36:37;;;;;;;47.45;28.00;;;;;;;1.34;100.00;101952.38;4975881;28;20069;-85
2021/11/11 00:39:09;;;;;;;44.03;28.23;;;;;;;1.31;100.00;101947.25;4972618;28;20538;-85
2021/11/11 00:41:35;;;;;;;53.45;29.52;;;;;;;1.26;100.00;101940.47;5008776;28;20035;-85
2021/11/11 00:44:03;;;;;;;46.00;27.70;;;;;;;1.25;100.00;101930.84;4990822;28;20030;-85
2021/11/11 00:46:30;;;;;;;51.38;31.23;;;;;;;1.29;100.00;101932.38;4989284;28;20033;-85
2021/11/11 00:48:55;;;;;;;54.60;32.65;;;;;;;1.28;100.00;101936.81;4998116;28;20132;-86
2021/11/11 00:51:22;;;;;;;58.40;31.25;;;;;;;1.33;100.00;101929.53;4983006;28;20073;-85
2021/11/11 00:53:51;;;;;;;44.17;30.40;;;;;;;1.32;100.00;101927.81;4986489;28;20502;-85
2021/11/11 00:56:18;;;;;;;52.25;29.92;;;;;;;1.35;100.00;101932.06;4986417;28;20487;-84
2021/11/11 00:58:44;;;;;;;50.00;29.35;;;;;;;1.34;100.00;101936.50;4989299;28;20053;-86
2021/11/11 01:01:11;;;;;;;47.05;28.25;;;;;;;1.39;100.00;101938.09;4971237;28;20047;-85
2021/11/11 01:03:40;;;;;;;45.08;27.42;;;;;;;1.38;100.00;101931.91;4991743;28;20491;-85
2021/11/11 01:06:11;;;;;;;49.55;29.45;;;;;;;1.42;100.00;101930.84;5002034;28;20175;-85
2021/11/11 01:08:38;;;;;;;41.80;26.83;;;;;;;1.36;100.00;101933.81;4990187;28;20041;-86
2021/11/11 01:11:05;;;;;;;45.63;29.17;;;;;;;1.38;100.00;101931.91;4999387;28;20183;-85
2021/11/11 01:13:38;;;;;;;45.08;29.75;;;;;;;1.48;100.00;101933.19;4991573;28;20038;-85
2021/11/11 01:16:06;;;;;;;45.00;26.17;;;;;;;1.42;100.00;101933.50;5003718;28;20442;-85
2021/11/11 01:18:44;;;;;;;45.75;26.00;;;;;;;1.39;100.00;101924.84;4980529;28;20069;-86
2021/11/11 01:21:09;;;;;;;50.15;29.42;;;;;;;1.47;100.00;101923.53;4990905;28;20046;-87
2021/11/11 01:23:37;;;;;;;59.72;32.00;;;;;;;1.64;100.00;101919.16;4980338;28;20103;-86
2021/11/11 01:26:04;;;;;;;46.72;30.05;;;;;;;1.73;100.00;101921.34;4963060;28;20046;-85
2021/11/11 01:28:42;;;;;;;50.83;30.23;;;;;;;1.80;100.00;101925.38;4981014;28;20045;-86
2021/11/11 01:31:09;;;;;;;43.75;27.27;;;;;;;1.64;100.00;101919.16;4971311;28;20506;-86
2021/11/11 01:33:36;;;;;;;60.20;34.92;;;;;;;1.73;100.00;101924.00;4962140;28;20471;-85
2021/11/11 01:36:03;;;;;;;47.03;31.58;;;;;;;1.74;100.00;101928.34;4970246;28;20043;-86
2021/11/11 01:38:30;;;;;;;45.70;27.83;;;;;;;1.72;100.00;101930.19;4971200;28;20038;-86
2021/11/11 01:40:58;;;;;;;54.42;31.52;;;;;;;1.76;100.00;101927.31;4972011;28;20063;-85
2021/11/11 01:43:25;;;;;;;50.33;28.17;;;;;;;1.80;100.00;101922.72;4967773;28;20069;-86
2021/11/11 01:46:04;;;;;;;55.00;30.80;;;;;;;1.80;100.00;101933.31;4987049;28;20093;-86
2021/11/11 01:48:30;;;;;;;50.70;28.55;;;;;;;1.85;100.00;101933.94;4965317;28;20041;-88
2021/11/11 01:50:57;;;;;;;47.17;27.88;;;;;;;1.79;100.00;101936.91;4985976;28;20431;-87
2021/11/11 01:53:29;;;;;;;42.25;26.70;;;;;;;1.79;100.00;101942.19;4974599;28;20069;-86
2021/11/11 01:55:56;;;;;;;44.20;26.92;;;;;;;1.72;100.00;101943.44;4983162;28;20492;-86
2021/11/11 01:58:34;;;;;;;45.65;27.38;;;;;;;1.69;100.00;101946.25;4991279;28;20510;-86
2021/11/11 02:01:06;;;;;;;48.53;27.83;;;;;;;1.66;100.00;101935.81;4984824;28;20130;-85
2021/11/11 02:03:34;;;;;;;47.30;28.70;;;;;;;1.67;100.00;101926.94;4988242;28;20049;-86
2021/11/11 02:06:10;;;;;;;45.00;27.35;;;;;;;1.64;100.00;101930.63;4973102;28;20073;-86
2021/11/11 02:08:37;;;;;;;47.72;28.92;;;;;;;1.67;100.00;101934.88;4970360;28;20046;-86
2021/11/11 02:11:03;;;;;;;45.75;29.38;;;;;;;1.73;100.00;101931.94;4974084;28;20043;-86
2021/11/11 02:13:28;;;;;;;46.47;29.05;;;;;;;1.72;100.00;101930.19;4968008;28;20038;-85
2021/11/11 02:16:00;;;;;;;45.20;29.58;;;;;;;1.76;100.00;101927.31;4970275;28;20057;-85
2021/11/11 02:18:29;;;;;;;47.50;28.30;;;;;;;1.79;100.00;101931.59;4955786;28;20672;-87
2021/11/11 02:20:57;;;;;;;49.55;29.13;;;;;;;1.79;100.00;101921.03;4970939;28;20054;-85
2021/11/11 02:23:25;;;;;;;49.00;29.13;;;;;;;1.82;100.00;101918.22;4987876;28;20133;-85
2021/11/11 02:25:50;;;;;;;50.15;30.77;;;;;;;1.89;100.00;101918.75;4990677;28;20054;-85
2021/11/11 02:28:22;;;;;;;48.90;31.50;;;;;;;1.95;100.00;101919.25;4971509;28;20042;-85
2021/11/11 02:30:51;;;;;;;51.45;33.45;;;;;;;1.99;100.00;101919.97;4972406;28;20129;-86
2021/11/11 02:33:21;;;;;;;52.17;31.98;;;;;;;1.97;100.00;101914.75;4968525;28;20042;-85
2021/11/11 02:35:50;;;;;;;52.83;32.33;;;;;;;2.02;100.00;101917.16;4971345;28;20062;-86
2021/11/11 02:38:22;;;;;;;54.88;33.22;;;;;;;2.07;100.00;101915.09;4972360;28;20038;-85
2021/11/11 02:40:49;;;;;;;57.15;32.45;;;;;;;2.10;100.00;101914.97;4971721;28;20046;-85
2021/11/11 02:43:22;;;;;;;50.88;32.70;;;;;;;2.15;100.00;101914.69;4972135;28;20043;-86
2021/11/11 02:45:49;;;;;;;58.78;33.67;;;;;;;2.18;100.00;101912.72;4982272;28;20046;-85
2021/11/11 02:48:20;;;;;;;53.67;32.25;;;;;;;2.22;100.00;101924.03;4987466;28;20081;-85
2021/11/11 02:50:49;;;;;;;53.97;31.80;;;;;;;2.26;100.00;101920.28;4973692;28;20042;-86
2021/11/11 02:53:18;;;;;;;55.57;32.67;;;;;;;2.25;100.00;101924.72;4980186;28;20656;-85
2021/11/11 02:55:44;;;;;;;59.95;33.28;;;;;;;2.29;100.00;101920.09;4968965;28;20856;-85
2021/11/11 02:58:11;;;;;;;58.42;33.67;;;;;;;2.35;100.00;101924.22;4995404;28;20047;-85
2021/11/11 03:00:47;;;;;;;56.95;34.03;;;;;;;2.44;100.00;101918.41;4985587;28;20042;-86
2021/11/11 03:03:20;;;;;;;59.58;32.85;;;;;;;2.54;100.00;101924.06;4987883;28;20098;-85
2021/11/11 03:05:52;;;;;;;60.75;33.25;;;;;;;2.58;100.00;101918.50;4971372;28;21178;-85
2021/11/11 03:08:19;;;;;;;57.50;32.90;;;;;;;2.63;100.00;101913.81;5005154;28;20706;-85
2021/11/11 03:10:47;;;;;;;60.75;33.70;;;;;;;2.70;100.00;101909.00;4986761;28;20491;-86
2021/11/11 03:13:15;;;;;;;59.50;33.13;;;;;;;2.74;100.00;101913.22;4999541;28;20049;-85
2021/11/11 03:15:43;;;;;;;57.72;32.72;;;;;;;2.79;100.00;101919.13;4985932;28;20063;-86
2021/11/11 03:18:17;;;;;;;56.85;34.92;;;;;;;2.82;100.00;101905.69;5007984;28;20045;-85
2021/11/11 03:20:48;;;;;;;59.40;35.78;;;;;;;2.84;100.00;101910.91;4993489;28;20438;-85
2021/11/11 03:23:15;;;;;;;62.42;32.35;;;;;;;2.83;100.00;101910.03;4989757;28;20038;-85
2021/11/11 03:25:40;;;;;;;64.28;37.40;;;;;;;2.88;100.00;101913.28;4997642;28;20046;-85
2021/11/11 03:28:07;;;;;;;57.22;35.95;;;;;;;2.91;100.00;101906.97;5006913;28;20044;-85
2021/11/11 03:30:34;;;;;;;60.53;35.05;;;;;;;2.91;100.00;101915.78;4985754;28;20046;-85
2021/11/11 03:33:09;;;;;;;56.08;33.67;;;;;;;2.91;100.00;101917.56;5005655;28;20053;-86
2021/11/11 03:35:36;;;;;;;56.78;34.78;;;;;;;2.91;100.00;101918.41;4992570;28;20138;-85
2021/11/11 03:38:20;;;;;;;60.35;33.83;;;;;;;2.91;100.00;101907.81;5008455;28;20041;-86
2021/11/11 03:40:48;;;;;;;58.97;33.42;;;;;;;2.92;100.00;101909.50;4974445;28;20045;-85
2021/11/11 03:43:22;;;;;;;58.65;35.22;;;;;;;2.92;100.00;101913.97;4998188;28;20035;-85
2021/11/11 03:45:47;;;;;;;61.38;36.92;;;;;;;2.91;100.00;101920.22;5007972;28;20042;-84
2021/11/11 03:48:15;;;;;;;56.15;35.70;;;;;;;2.90;100.00;101913.19;5008087;28;20060;-84
2021/11/11 03:50:42;;;;;;;50.95;31.45;;;;;;;2.88;100.00;101929.19;4986132;28;20577;-85
2021/11/11 03:53:08;;;;;;;55.63;36.13;;;;;;;2.88;100.00;101925.69;4991501;28;20042;-85
2021/11/11 03:55:36;;;;;;;59.72;35.40;;;;;;;2.88;100.00;101912.44;4984097;28;20038;-85
2021/11/11 03:58:15;;;;;;;57.60;34.90;;;;;;;2.86;100.00;101909.03;4969863;28;20049;-86
2021/11/11 04:00:43;;;;;;;57.15;33.97;;;;;;;2.80;100.00;101909.38;4940946;28;20046;-85
2021/11/11 04:03:08;;;;;;;60.13;35.33;;;;;;;2.73;100.00;101924.75;4986279;28;20038;-85
2021/11/11 04:05:35;;;;;;;59.15;35.50;;;;;;;2.70;100.00;101922.25;4971016;28;20042;-85
2021/11/11 04:08:06;;;;;;;55.53;35.13;;;;;;;2.66;100.00;101916.28;4970770;28;20050;-85
2021/11/11 04:10:35;;;;;;;56.10;30.35;;;;;;;2.57;100.00;101919.47;4969552;28;20038;-86
2021/11/11 04:13:04;;;;;;;54.08;33.80;;;;;;;2.59;100.00;101922.00;4983004;28;20129;-86
2021/11/11 04:15:31;;;;;;;56.80;34.38;;;;;;;2.57;100.00;101921.25;4986000;28;20039;-85
2021/11/11 04:17:57;;;;;;;56.40;35.20;;;;;;;2.53;100.00;101917.91;4982691;28;20071;-86
2021/11/11 04:20:24;;;;;;;58.20;36.25;;;;;;;2.51;100.00;101917.16;4980215;28;20085;-86
2021/11/11 04:22:50;;;;;;;56.72;35.20;;;;;;;2.49;100.00;101921.66;4970805;28;20042;-86
2021/11/11 04:28:14;;;;;;;66.13;36.05;;;;;;;2.39;100.00;101907.25;4978840;28;20494;-85
2021/11/11 04:30:43;;;;;;;60.47;37.10;;;;;;;2.34;100.00;101904.81;4986874;28;20038;-85
2021/11/11 04:33:16;;;;;;;57.22;35.75;;;;;;;2.33;100.00;101905.78;4964189;28;20034;-86
2021/11/11 04:35:47;;;;;;;54.35;34.42;;;;;;;2.22;100.00;101905.50;4980381;28;20061;-85
2021/11/11 04:38:35;;;;;;;56.55;35.95;;;;;;;2.15;100.00;101912.06;4966459;28;20042;-85
2021/11/11 04:41:58;;;;;;;62.53;37.00;;;;;;;2.08;100.00;101913.34;4958621;28;20065;-85
2021/11/11 04:47:27;;;;;;;61.30;34.83;;;;;;;1.93;100.00;101929.09;4985297;28;20099;-85
2021/11/11 05:00:58;;;;;;;72.60;37.80;;;;;;;1.74;100.00;101912.47;4983239;28;20141;-85
2021/11/11 05:03:43;;;;;;;55.72;35.33;;;;;;;1.74;100.00;101915.09;4967369;28;20034;-85
2021/11/11 05:06:43;;;;;;;62.10;36.25;;;;;;;1.68;100.00;101918.06;4990397;28;20038;-85
2021/11/11 05:09:08;;;;;;;62.33;37.63;;;;;;;1.63;100.00;101914.81;5006527;28;20041;-85
2021/11/11 05:11:34;;;;;;;61.40;36.35;;;;;;;1.63;100.00;101920.09;4989119;28;20065;-85
2021/11/11 05:13:59;;;;;;;63.40;37.22;;;;;;;1.63;100.00;101915.66;4991957;28;20128;-85
2021/11/11 05:16:25;;;;;;;59.67;37.92;;;;;;;1.62;100.00;101908.66;4995100;28;20092;-86
2021/11/11 05:18:52;;;;;;;65.78;37.63;;;;;;;1.58;100.00;101918.56;4994308;28;20046;-85
2021/11/11 05:21:21;;;;;;;67.07;41.13;;;;;;;1.61;100.00;101914.00;4992741;28;20160;-86
2021/11/11 05:23:47;;;;;;;67.78;42.58;;;;;;;1.63;100.00;101914.81;4992689;28;20049;-85
2021/11/11 05:26:13;;;;;;;76.03;45.22;;;;;;;1.70;100.00;101913.56;4956547;28;20045;-85
2021/11/11 05:28:39;;;;;;;78.28;44.30;;;;;;;1.71;100.00;101917.91;4971783;28;20065;-86
2021/11/11 05:31:06;;;;;;;72.30;43.75;;;;;;;1.76;100.00;101916.75;4971516;28;20045;-85
2021/11/11 05:33:31;;;;;;;74.30;45.60;;;;;;;1.78;100.00;101933.41;4969263;28;20073;-85
2021/11/11 05:35:56;;;;;;;71.43;40.65;;;;;;;1.80;100.00;101938.59;4986013;28;20062;-86
2021/11/11 05:38:22;;;;;;;69.38;39.53;;;;;;;1.78;100.00;101940.47;4975977;28;21637;-85
2021/11/11 05:40:47;;;;;;;62.67;35.78;;;;;;;1.78;100.00;101935.16;4992396;28;20107;-84
2021/11/11 05:43:15;;;;;;;66.00;38.63;;;;;;;1.76;100.00;101934.41;5012623;28;20486;-84
2021/11/11 05:45:40;;;;;;;67.20;39.92;;;;;;;1.80;100.00;101936.81;4976376;28;20042;-84
2021/11/11 05:48:06;;;;;;;74.45;42.22;;;;;;;1.79;100.00;101943.03;4958701;28;20047;-85
2021/11/11 05:50:31;;;;;;;68.55;38.95;;;;;;;1.76;100.00;101943.22;4969060;28;20045;-84
2021/11/11 05:52:57;;;;;;;69.70;39.55;;;;;;;1.73;100.00;101953.94;4971107;28;20038;-85
2021/11/11 05:55:22;;;;;;;66.60;39.88;;;;;;;1.73;100.00;101951.31;4989474;28;20112;-85
2021/11/11 05:57:48;;;;;;;79.80;46.45;;;;;;;1.78;100.00;101951.94;4995073;28;20843;-85
2021/11/11 06:00:18;;;;;;;76.07;45.97;;;;;;;1.82;100.00;101952.63;4985708;28;20054;-86
2021/11/11 06:02:43;;;;;;;74.78;45.42;;;;;;;1.84;100.00;101957.81;4982333;28;20372;-86
2021/11/11 06:05:10;;;;;;;71.47;44.63;;;;;;;1.86;100.00;101959.47;4971953;28;20088;-84
2021/11/11 06:07:36;;;;;;;76.25;46.90;;;;;;;1.88;100.00;101957.59;4983004;28;20046;-85
2021/11/11 06:10:03;;;;;;;80.22;44.58;;;;;;;1.88;100.00;101957.59;4978924;28;20071;-85
2021/11/11 06:12:28;;;;;;;72.75;45.00;;;;;;;1.88;100.00;101957.59;4974712;28;20495;-83
2021/11/11 06:14:54;;;;;;;75.60;45.63;;;;;;;1.88;100.00;101962.88;4967462;28;20078;-86
2021/11/11 06:17:19;;;;;;;69.32;42.22;;;;;;;1.86;100.00;101962.09;4966797;28;20054;-85
2021/11/11 06:19:46;;;;;;;76.72;43.55;;;;;;;1.87;100.00;101971.78;4990035;28;20153;-84
2021/11/11 06:22:11;;;;;;;82.10;45.25;;;;;;;1.89;100.00;101966.38;4978770;28;20299;-84
2021/11/11 06:24:37;;;;;;;73.25;42.33;;;;;;;1.90;100.00;101970.72;4958822;28;20049;-85
2021/11/11 06:27:03;;;;;;;79.68;48.70;;;;;;;2.00;100.00;101980.78;4975626;28;20069;-84
2021/11/11 06:29:29;;;;;;;75.68;47.90;;;;;;;2.03;100.00;101972.66;4977820;28;20096;-85
2021/11/11 06:31:54;;;;;;;73.13;45.03;;;;;;;2.08;100.00;101982.19;4983771;28;20034;-85
2021/11/11 06:34:20;;;;;;;77.57;46.90;;;;;;;2.12;100.00;101986.38;4985079;28;20598;-84
2021/11/11 06:36:45;;;;;;;74.88;44.03;;;;;;;2.15;100.00;101989.69;4976466;28;20042;-85
2021/11/11 06:39:10;;;;;;;74.40;42.90;;;;;;;2.20;100.00;101978.88;4958486;28;20372;-84
2021/11/11 06:41:36;;;;;;;69.43;40.88;;;;;;;2.23;100.00;101986.66;4978372;28;20038;-84
2021/11/11 06:44:02;;;;;;;78.75;43.03;;;;;;;2.28;100.00;101989.94;4946511;28;20035;-84
2021/11/11 06:46:27;;;;;;;71.43;39.35;;;;;;;2.30;100.00;101995.97;4951824;28;20126;-85
2021/11/11 06:48:53;;;;;;;78.43;42.30;;;;;;;2.36;100.00;101995.69;4986905;28;20066;-84
2021/11/11 06:51:18;;;;;;;76.07;43.75;;;;;;;2.41;100.00;101996.25;4987183;28;20050;-85
2021/11/11 06:53:46;;;;;;;74.40;46.13;;;;;;;2.48;100.00;102005.63;4988280;28;20074;-86
2021/11/11 06:56:13;;;;;;;77.60;44.33;;;;;;;2.49;100.00;102007.31;4979025;28;20709;-86
2021/11/11 06:58:39;;;;;;;73.43;42.13;;;;;;;2.52;100.00;102005.44;4979593;28;20050;-87
2021/11/11 07:01:05;;;;;;;74.70;41.95;;;;;;;2.57;100.00;102008.72;4985031;28;20054;-87
2021/11/11 07:03:32;;;;;;;75.80;43.30;;;;;;;2.61;100.00;102010.25;4948904;28;20042;-84
2021/11/11 07:05:58;;;;;;;71.95;43.72;;;;;;;2.66;100.00;102008.19;4985201;28;20038;-86
2021/11/11 07:08:25;;;;;;;67.97;41.53;;;;;;;2.66;100.00;102002.91;4981157;28;20039;-85
2021/11/11 07:10:53;;;;;;;76.30;42.28;;;;;;;2.72;100.00;102010.53;4956981;28;20090;-85
2021/11/11 07:13:19;;;;;;;73.35;41.65;;;;;;;2.72;100.00;102013.16;4969205;28;20041;-86
2021/11/11 07:15:45;;;;;;;75.82;44.95;;;;;;;2.77;100.00;102005.81;4976627;28;20049;-85
2021/11/11 07:18:11;;;;;;;64.53;41.35;;;;;;;2.78;100.00;102009.31;4968079;28;20152;-86
2021/11/11 07:20:40;;;;;;;67.55;41.90;;;;;;;2.84;100.00;102006.34;4965374;28;20053;-86
2021/11/11 07:23:06;;;;;;;66.28;40.35;;;;;;;2.84;100.00;102009.00;4982833;28;20043;-86
2021/11/11 07:25:32;;;;;;;68.70;40.03;;;;;;;2.88;100.00;102008.75;4970149;28;20096;-86
2021/11/11 07:27:58;;;;;;;67.65;38.90;;;;;;;2.91;100.00;102003.28;4969565;28;20034;-87
2021/11/11 07:30:25;;;;;;;67.28;38.53;;;;;;;2.92;100.00;102010.28;4977815;28;20546;-86
2021/11/11 07:32:51;;;;;;;67.85;38.92;;;;;;;3.00;100.00;102012.50;4949208;28;20118;-87
2021/11/11 07:35:17;;;;;;;69.65;40.83;;;;;;;3.07;100.00;102013.84;4984628;28;20050;-85
2021/11/11 07:37:45;;;;;;;72.35;40.42;;;;;;;3.08;100.00;102006.75;4983580;28;20041;-86
2021/11/11 07:40:15;;;;;;;64.25;38.90;;;;;;;3.09;100.00;102009.34;4957723;28;20043;-85
2021/11/11 07:42:41;;;;;;;66.43;40.28;;;;;;;3.13;100.00;101996.75;4968391;28;20046;-85
2021/11/11 07:45:08;;;;;;;68.03;39.28;;;;;;;3.15;100.00;101989.56;4968059;28;20045;-86
2021/11/11 07:47:34;;;;;;;71.60;41.35;;;;;;;3.20;100.00;101984.88;4967477;28;20434;-86
2021/11/11 07:50:03;;;;;;;65.60;38.03;;;;;;;3.23;100.00;101989.16;5000086;28;20045;-86
2021/11/11 07:52:29;;;;;;;68.37;36.03;;;;;;;3.24;100.00;101996.16;4981600;28;20398;-86
2021/11/11 07:54:56;;;;;;;68.82;41.80;;;;;;;3.29;100.00;101989.63;4967593;28;20116;-86
2021/11/11 07:57:24;;;;;;;71.65;42.72;;;;;;;3.33;100.00;101990.31;4971124;28;20173;-85
2021/11/11 07:59:51;;;;;;;66.10;39.00;;;;;;;3.31;100.00;101984.22;4968611;28;20128;-86
2021/11/11 08:02:17;;;;;;;64.13;38.05;;;;;;;3.32;100.00;101986.81;4951747;28;20080;-86
2021/11/11 08:04:43;;;;;;;62.88;39.20;;;;;;;3.34;100.00;101982.28;4964460;28;20402;-87
2021/11/11 08:07:08;;;;;;;65.22;38.42;;;;;;;3.40;100.00;101994.34;4966180;28;20043;-85
2021/11/11 08:09:34;;;;;;;58.65;38.25;;;;;;;3.44;100.00;101993.19;4951388;28;20030;-86
2021/11/11 08:11:59;;;;;;;66.43;41.42;;;;;;;3.52;100.00;101998.06;4956667;28;20046;-86
2021/11/11 08:14:25;;;;;;;67.95;39.20;;;;;;;3.53;100.00;101997.13;4967670;28;20053;-85
2021/11/11 08:16:52;;;;;;;69.60;41.25;;;;;;;3.56;100.00;101988.97;4968638;28;20031;-85
2021/11/11 08:19:17;;;;;;;62.13;38.33;;;;;;;3.56;100.00;101991.63;4945993;28;20517;-86
2021/11/11 08:21:43;;;;;;;69.07;38.83;;;;;;;3.60;100.00;101995.84;4983602;28;20042;-86
2021/11/11 08:24:08;;;;;;;62.67;38.60;;;;;;;3.64;100.00;101996.50;4973847;28;20066;-86
2021/11/11 08:26:34;;;;;;;58.65;36.13;;;;;;;3.69;100.00;101995.28;4949826;28;20045;-87
2021/11/11 08:28:59;;;;;;;62.33;37.38;;;;;;;3.72;100.00;102000.41;4980228;28;20043;-85
2021/11/11 08:31:25;;;;;;;70.65;38.75;;;;;;;3.72;100.00;101989.78;4968236;28;20038;-86
2021/11/11 08:33:50;;;;;;;65.68;40.60;;;;;;;3.81;100.00;101997.22;4969392;28;20041;-85
2021/11/11 08:36:16;;;;;;;64.97;38.72;;;;;;;3.85;100.00;102000.53;4975945;28;20683;-86
2021/11/11 08:38:41;;;;;;;69.38;40.40;;;;;;;3.91;100.00;102001.97;4982384;28;20458;-86
2021/11/11 08:41:08;;;;;;;60.35;37.33;;;;;;;3.96;100.00;101999.91;4983090;28;20029;-86
2021/11/11 08:43:34;;;;;;;58.03;37.85;;;;;;;4.01;100.00;101989.84;4965306;28;20045;-86
2021/11/11 08:46:00;;;;;;;65.03;41.67;;;;;;;4.06;100.00;101993.09;4980317;28;20070;-86
2021/11/11 08:48:25;;;;;;;58.00;38.00;;;;;;;4.07;100.00;101998.31;4977590;28;20066;-86
2021/11/11 08:50:51;;;;;;;63.92;40.80;;;;;;;4.13;100.00;101999.72;4949265;28;20045;-86
2021/11/11 08:53:17;;;;;;;59.78;38.70;;;;;;;4.19;100.00;101999.34;4967813;28;20034;-86
2021/11/11 08:55:44;;;;;;;58.58;37.35;;;;;;;4.20;100.00;101995.78;4964905;28;20041;-86
2021/11/11 08:58:12;;;;;;;62.25;39.78;;;;;;;4.28;100.00;101993.47;4963607;28;20097;-86
2021/11/11 09:00:43;;;;;;;65.65;38.33;;;;;;;4.34;100.00;101994.91;4980641;28;20035;-86
2021/11/11 09:03:12;;;;;;;61.78;37.20;;;;;;;4.39;100.00;102000.78;4984078;28;20129;-86
2021/11/11 09:05:38;;;;;;;63.72;36.67;;;;;;;4.43;100.00;102004.09;4983157;28;20294;-86
2021/11/11 09:08:06;;;;;;;56.35;37.17;;;;;;;4.47;100.00;102008.31;4962839;28;20439;-85
2021/11/11 09:10:31;;;;;;;58.53;34.60;;;;;;;4.46;100.00;102012.78;4981265;28;20045;-86
2021/11/11 09:12:58;;;;;;;56.20;36.88;;;;;;;4.53;100.00;102007.91;4981922;28;20039;-86
2021/11/11 09:15:27;;;;;;;64.57;35.60;;;;;;;4.63;100.00;102008.19;4980588;28;20042;-86
2021/11/11 09:17:54;;;;;;;55.78;35.67;;;;;;;4.64;100.00;102009.91;4949900;28;20536;-86
2021/11/11 09:20:21;;;;;;;56.17;34.13;;;;;;;4.66;100.00;102015.97;4964341;28;20054;-87
2021/11/11 09:22:49;;;;;;;57.60;36.10;;;;;;;4.73;100.00;102014.66;4958665;28;20039;-86
2021/11/11 09:25:15;;;;;;;54.50;34.67;;;;;;;4.74;100.00;102005.72;4958407;28;20402;-86
2021/11/11 09:27:43;;;;;;;56.00;35.53;;;;;;;4.80;100.00;102015.09;4966919;28;20034;-86
2021/11/11 09:30:15;;;;;;;54.92;32.72;;;;;;;4.83;100.00;102014.91;4958717;28;20046;-86
2021/11/11 09:32:41;;;;;;;58.60;36.38;;;;;;;4.89;100.00;102017.19;4953863;28;20089;-86
2021/11/11 09:35:07;;;;;;;55.42;33.95;;;;;;;4.91;100.00;102017.94;4982540;28;20050;-86
2021/11/11 09:37:33;;;;;;;58.83;35.70;;;;;;;4.96;100.00;102005.22;4957684;28;20454;-86
2021/11/11 09:39:59;;;;;;;65.53;38.28;;;;;;;5.04;100.00;102010.06;4965680;28;20046;-86
2021/11/11 09:42:25;;;;;;;60.88;39.00;;;;;;;5.11;100.00;102011.34;4965788;28;20156;-86
2021/11/11 09:44:51;;;;;;;59.80;33.20;;;;;;;5.13;100.00;102017.44;4983387;28;20042;-86
2021/11/11 09:47:17;;;;;;;57.95;34.78;;;;;;;5.22;100.00;102016.84;4969377;28;20035;-86
2021/11/11 09:49:44;;;;;;;59.13;36.08;;;;;;;5.32;100.00;102022.41;4969588;28;20471;-86
2021/11/11 09:52:10;;;;;;;54.67;32.97;;;;;;;5.36;100.00;102023.91;4983154;28;20046;-87
2021/11/11 09:59:45;;;;;;;53.28;32.08;;;;;;;5.50;100.00;102026.53;4984682;28;20105;-86
2021/11/11 10:02:11;;;;;;;56.70;38.58;;;;;;;5.57;100.00;102017.16;4966390;28;20324;-85
2021/11/11 10:04:38;;;;;;;52.10;33.38;;;;;;;5.63;100.00;102023.91;4985026;28;20096;-85
2021/11/11 10:07:04;;;;;;;58.83;31.40;;;;;;;5.68;100.00;102024.44;4985778;28;20046;-86
2021/11/11 10:09:30;;;;;;;55.55;36.80;;;;;;;5.73;100.00;102010.84;4970417;28;20506;-86
2021/11/11 10:12:02;;;;;;;57.00;33.05;;;;;;;5.78;100.00;102006.91;4966001;28;20043;-86
2021/11/11 10:14:34;;;;;;;55.75;31.33;;;;;;;5.83;100.00;102004.75;4990602;28;20083;-87
2021/11/11 10:17:03;;;;;;;54.15;35.50;;;;;;;5.86;100.00;102006.38;5001161;28;20035;-86
2021/11/11 10:19:30;;;;;;;;;;;;;;;5.92;100.00;102005.94;4999552;28;20057;-87
2021/11/11 10:22:19;;;;;;;60.53;36.50;;;;;;;5.92;100.00;102008.63;5003134;28;20005;-86
2021/11/11 10:24:56;;;;;;;56.03;31.67;;;;;;;5.96;100.00;102007.50;4990769;28;20048;-87
2021/11/11 10:27:36;;;;;;;55.35;30.23;;;;;;;5.99;100.00;102007.28;4985082;28;20561;-88
2021/11/11 10:30:15;;;;;;;68.85;44.65;;;;;;;6.06;100.00;102010.38;5001038;28;20045;-86
2021/11/11 10:32:46;;;;;;;49.38;32.03;;;;;;;6.15;100.00;102012.41;4990027;28;20037;-86
2021/11/11 10:35:18;;;;;;;54.22;31.92;;;;;;;6.23;100.00;102002.06;4969717;28;20661;-86
2021/11/11 10:37:48;;;;;;;72.75;44.45;;;;;;;6.27;100.00;102008.91;5006584;28;20402;-87
2021/11/11 10:40:18;;;;;;;49.15;30.30;;;;;;;6.37;100.00;102006.44;4999788;28;20065;-86
2021/11/11 10:42:46;;;;;;;52.28;31.25;;;;;;;6.43;100.00;102005.16;4971876;28;20133;-87
2021/11/11 10:45:16;;;;;;;46.87;29.27;;;;;;;6.45;100.00;102009.44;4991187;28;20056;-86
2021/11/11 10:47:44;;;;;;;50.85;28.40;;;;;;;6.44;100.00;102007.69;4989133;28;20274;-87
2021/11/11 10:50:16;;;;;;;48.45;30.98;;;;;;;6.48;100.00;102001.22;5007855;28;20050;-87
2021/11/11 10:52:49;;;;;;;51.72;31.70;;;;;;;6.48;100.00;102011.88;5002455;28;20128;-87
2021/11/11 10:55:20;;;;;;;50.65;28.48;;;;;;;6.50;100.00;102007.31;4998401;28;20030;-87
2021/11/11 10:57:54;;;;;;;48.60;29.40;;;;;;;6.54;100.00;102008.78;4983972;28;20052;-87
2021/11/11 11:00:27;;;;;;;49.95;28.13;;;;;;;6.58;100.00;102005.88;5005104;28;20758;-87
2021/11/11 11:03:03;;;;;;;52.20;29.42;;;;;;;6.64;100.00;102005.44;4989987;28;20048;-88
2021/11/11 11:05:35;;;;;;;53.35;29.80;;;;;;;6.64;100.00;101990.28;4984874;28;20042;-86
2021/11/11 11:08:05;;;;;;;45.33;29.35;;;;;;;6.67;100.00;102002.56;5002976;28;20180;-86
2021/11/11 11:10:33;;;;;;;49.05;29.27;;;;;;;6.68;100.00;101998.94;4988803;28;20115;-86
2021/11/11 11:13:05;;;;;;;54.28;30.83;;;;;;;6.72;100.00;102001.28;4999565;28;20049;-87
2021/11/11 11:15:35;;;;;;;51.08;32.33;;;;;;;6.75;100.00;101992.19;4968712;28;20041;-87
2021/11/11 11:18:01;;;;;;;47.80;25.98;;;;;;;6.70;100.00;101992.56;5002873;28;20095;-86
2021/11/11 11:20:28;;;;;;;48.97;27.17;;;;;;;6.73;100.00;101991.44;4955762;28;20514;-86
2021/11/11 11:23:22;;;;;;;49.38;29.35;;;;;;;6.77;100.00;101999.13;5005406;28;20034;-87
2021/11/11 11:26:01;;;;;;;53.78;28.85;;;;;;;6.76;100.00;101988.56;4983484;28;20091;-86
2021/11/11 11:28:32;;;;;;;47.78;26.45;;;;;;;6.75;100.00;101989.53;5002959;28;20440;-87
2021/11/11 11:31:00;;;;;;;46.33;28.40;;;;;;;6.76;100.00;101986.78;5008447;28;20128;-87
2021/11/11 11:33:39;;;;;;;50.08;28.42;;;;;;;6.80;100.00;101990.06;4985056;28;20042;-87
2021/11/11 11:36:05;;;;;;;48.58;27.58;;;;;;;6.81;100.00;101989.09;4982210;28;20046;-87
2021/11/11 11:38:38;;;;;;;53.25;31.60;;;;;;;6.84;100.00;101990.69;4973331;28;20042;-87